createdAt,value
2022-10-14T00:01:03.740Z,10.63
2022-10-14T00:03:54.177Z,12.48
2022-10-14T00:06:24.903Z,10.57
2022-10-14T00:08:52.500Z,11.88
2022-10-14T00:11:22.673Z,14.47
2022-10-14T00:13:50.148Z,13.73
2022-10-14T00:16:20.524Z,13.93
2022-10-14T00:18:47.806Z,11.50
2022-10-14T00:21:15.546Z,11.55
2022-10-14T00:23:43.157Z,11.43
2022-10-14T00:26:26.303Z,10.32
2022-10-14T00:28:53.493Z,9.95
2022-10-14T00:31:21.674Z,10.38
2022-10-14T00:33:49.021Z,10.52
2022-10-14T00:36:18.502Z,9.60
2022-10-14T00:38:46.330Z,10.55
2022-10-14T00:41:17.234Z,11.75
2022-10-14T00:44:07.746Z,15.82
2022-10-14T00:46:37.972Z,14.32
2022-10-14T00:49:29.034Z,15.97
2022-10-14T00:52:00.670Z,13.43
2022-10-14T00:54:32.115Z,12.63
2022-10-14T00:56:58.984Z,12.90
2022-10-14T00:59:25.779Z,17.27
2022-10-14T01:01:57.129Z,14.50
2022-10-14T01:04:24.151Z,14.55
2022-10-14T01:06:50.959Z,16.30
2022-10-14T01:09:43.504Z,13.30
2022-10-14T01:12:28.671Z,11.65
2022-10-14T01:15:18.112Z,11.57
2022-10-14T01:18:19.316Z,11.50
2022-10-14T01:20:58.913Z,11.85
2022-10-14T01:23:50.422Z,12.93
2022-10-14T01:26:48.379Z,12.10
2022-10-14T01:29:33.532Z,12.33
2022-10-14T01:32:06.532Z,13.43
2022-10-14T01:34:42.680Z,15.32
2022-10-14T01:37:15.462Z,12.90
2022-10-14T01:39:50.783Z,10.75
2022-10-14T01:42:24.146Z,11.87
2022-10-14T01:44:56.733Z,14.10
2022-10-14T01:47:27.790Z,14.90
2022-10-14T01:49:59.265Z,14.50
2022-10-14T01:52:31.308Z,13.48
2022-10-14T01:55:02.099Z,12.67
2022-10-14T01:57:32.939Z,15.55
2022-10-14T02:00:00.938Z,20.75
2022-10-14T02:02:27.705Z,19.85
2022-10-14T02:04:54.588Z,14.05
2022-10-14T02:07:27.476Z,20.57
2022-10-14T02:10:13.812Z,19.80
2022-10-14T02:12:52.917Z,24.35
2022-10-14T02:15:31.363Z,24.40
2022-10-14T02:18:00.814Z,21.23
2022-10-14T02:20:55.522Z,18.97
2022-10-14T02:23:28.048Z,16.80
2022-10-14T02:25:57.832Z,10.73
2022-10-14T02:28:27.734Z,15.23
2022-10-14T02:31:00.951Z,14.25
2022-10-14T02:33:39.245Z,13.17
2022-10-14T02:36:09.975Z,14.15
2022-10-14T02:38:38.084Z,13.73
2022-10-14T02:41:08.879Z,13.82
2022-10-14T02:43:35.775Z,15.68
2022-10-14T02:46:06.245Z,11.87
2022-10-14T02:48:33.574Z,18.67
2022-10-14T02:51:00.246Z,13.52
2022-10-14T02:53:27.265Z,13.35
2022-10-14T02:55:54.060Z,14.88
2022-10-14T02:58:20.705Z,20.77
2022-10-14T03:00:50.057Z,18.75
2022-10-14T03:03:17.700Z,27.92
2022-10-14T03:05:44.443Z,16.90
2022-10-14T03:08:14.016Z,12.95
2022-10-14T03:10:40.655Z,13.17
2022-10-14T03:13:10.236Z,15.05
2022-10-14T03:15:42.119Z,11.15
2022-10-14T03:18:10.735Z,11.50
2022-10-14T03:20:46.245Z,13.35
2022-10-14T03:23:17.820Z,12.20
2022-10-14T03:25:47.343Z,12.50
2022-10-14T03:28:20.581Z,15.90
2022-10-14T03:31:01.338Z,13.50
2022-10-14T03:33:43.493Z,17.83
2022-10-14T03:36:13.021Z,19.77
2022-10-14T03:38:50.537Z,15.75
2022-10-14T03:41:33.383Z,13.70
2022-10-14T03:44:00.403Z,18.67
2022-10-14T03:46:27.841Z,25.90
2022-10-14T03:48:56.540Z,19.10
2022-10-14T03:51:24.084Z,21.83
2022-10-14T03:53:54.793Z,25.42
2022-10-14T03:56:27.243Z,18.67
2022-10-14T03:58:54.631Z,17.30
2022-10-14T04:01:23.246Z,18.97
2022-10-14T04:04:25.313Z,18.20
2022-10-14T04:06:52.262Z,20.63
2022-10-14T04:09:21.952Z,17.50
2022-10-14T04:11:48.715Z,16.77
2022-10-14T04:14:35.437Z,15.67
2022-10-14T04:17:02.127Z,14.88
2022-10-14T04:19:28.911Z,16.40
2022-10-14T04:21:55.813Z,14.18
2022-10-14T04:24:24.255Z,12.32
2022-10-14T04:26:56.891Z,18.23
2022-10-14T04:29:42.539Z,16.77
2022-10-14T04:32:16.304Z,15.00
2022-10-14T04:34:42.934Z,15.10
2022-10-14T04:37:12.822Z,11.63
2022-10-14T04:39:48.735Z,16.13
2022-10-14T04:42:16.564Z,12.38
2022-10-14T04:44:46.818Z,13.93
2022-10-14T04:47:14.977Z,14.57
2022-10-14T04:49:41.818Z,15.98
2022-10-14T04:52:18.137Z,12.50
2022-10-14T04:54:53.482Z,17.38
2022-10-14T04:57:31.918Z,17.20
2022-10-14T04:59:58.679Z,17.15
2022-10-14T05:02:57.866Z,18.85
2022-10-14T05:05:31.140Z,20.27
2022-10-14T05:08:00.269Z,17.98
2022-10-14T05:10:36.309Z,17.73
2022-10-14T05:13:07.392Z,15.07
2022-10-14T05:15:37.803Z,13.35
2022-10-14T05:18:12.236Z,12.67
2022-10-14T05:20:50.533Z,13.32
2022-10-14T05:23:19.949Z,12.65
2022-10-14T05:25:47.226Z,14.43
2022-10-14T05:28:14.480Z,12.68
2022-10-14T05:30:43.346Z,14.70
2022-10-14T05:33:12.219Z,14.15
2022-10-14T05:35:57.989Z,13.82
2022-10-14T05:38:26.763Z,18.13
2022-10-14T05:40:57.763Z,16.60
2022-10-14T05:43:30.991Z,14.47
2022-10-14T05:46:00.455Z,14.75
2022-10-14T05:48:30.835Z,14.98
2022-10-14T05:51:02.188Z,15.82
2022-10-14T05:53:30.887Z,18.20
2022-10-14T05:56:08.178Z,19.30
2022-10-14T05:58:37.396Z,24.70
2022-10-14T06:01:07.174Z,25.15
2022-10-14T06:03:34.391Z,26.35
2022-10-14T06:06:01.358Z,39.40
2022-10-14T06:08:30.149Z,22.27
2022-10-14T06:10:56.916Z,21.88
2022-10-14T06:13:23.830Z,23.98
2022-10-14T06:15:51.663Z,22.88
2022-10-14T06:18:18.300Z,19.98
2022-10-14T06:20:51.816Z,18.97
2022-10-14T06:23:18.666Z,20.95
2022-10-14T06:25:45.367Z,18.55
2022-10-14T06:28:12.348Z,18.73
2022-10-14T06:30:39.194Z,19.67
2022-10-14T06:33:05.826Z,23.47
2022-10-14T06:35:32.851Z,18.23
2022-10-14T06:37:59.644Z,18.40
2022-10-14T06:40:26.394Z,14.75
2022-10-14T06:42:53.630Z,16.70
2022-10-14T06:45:20.436Z,18.47
2022-10-14T06:47:47.500Z,17.48
2022-10-14T06:50:14.317Z,23.10
2022-10-14T06:52:41.432Z,17.65
2022-10-14T06:55:08.160Z,17.80
2022-10-14T06:57:34.891Z,15.73
2022-10-14T07:00:01.865Z,16.40
2022-10-14T07:02:28.545Z,18.77
2022-10-14T07:04:55.385Z,19.33
2022-10-14T07:07:22.188Z,19.88
2022-10-14T07:09:48.976Z,16.20
2022-10-14T07:12:15.911Z,17.73
2022-10-14T07:14:42.843Z,13.48
2022-10-14T07:17:09.503Z,20.45
2022-10-14T07:19:36.133Z,13.95
2022-10-14T07:22:03.056Z,15.67
2022-10-14T07:24:29.700Z,15.40
2022-10-14T07:26:56.380Z,17.65
2022-10-14T07:29:23.204Z,16.02
2022-10-14T07:31:49.815Z,15.60
2022-10-14T07:34:17.045Z,14.70
2022-10-14T07:36:44.122Z,16.55
2022-10-14T07:39:10.795Z,14.52
2022-10-14T07:41:38.695Z,14.32
2022-10-14T07:44:08.929Z,17.30
2022-10-14T07:46:39.058Z,14.10
2022-10-14T07:49:14.433Z,19.27
2022-10-14T07:51:41.613Z,16.23
2022-10-14T07:54:12.530Z,18.98
2022-10-14T07:56:41.208Z,16.23
2022-10-14T07:59:08.027Z,13.73
2022-10-14T08:01:35.017Z,15.75
2022-10-14T08:04:01.894Z,12.93
2022-10-14T08:06:28.728Z,13.85
2022-10-14T08:08:55.464Z,13.95
2022-10-14T08:11:27.790Z,15.23
2022-10-14T08:13:55.419Z,16.90
2022-10-14T08:16:24.864Z,20.45
2022-10-14T08:18:52.991Z,14.57
2022-10-14T08:21:21.060Z,14.52
2022-10-14T08:23:48.096Z,15.33
2022-10-14T08:26:22.593Z,14.57
2022-10-14T08:28:50.812Z,15.38
2022-10-14T08:31:17.721Z,14.27
2022-10-14T08:33:44.531Z,16.45
2022-10-14T08:36:11.536Z,18.53
2022-10-14T08:38:38.437Z,15.90
2022-10-14T08:41:17.229Z,18.25
2022-10-14T08:44:06.219Z,17.80
2022-10-14T08:46:52.902Z,17.08
2022-10-14T08:49:26.851Z,16.07
2022-10-14T08:52:10.773Z,18.10
2022-10-14T08:54:45.048Z,23.30
2022-10-14T08:57:17.249Z,15.75
2022-10-14T08:59:44.489Z,15.77
2022-10-14T09:02:29.367Z,14.57
2022-10-14T09:04:58.555Z,14.65
2022-10-14T09:07:25.961Z,13.57
2022-10-14T09:10:01.536Z,13.43
2022-10-14T09:12:32.021Z,15.23
2022-10-14T09:15:17.086Z,12.80
2022-10-14T09:18:09.014Z,14.55
2022-10-14T09:20:35.789Z,14.05
2022-10-14T09:23:04.410Z,13.65
2022-10-14T09:25:34.321Z,15.35
2022-10-14T09:28:01.055Z,17.23
2022-10-14T09:30:33.459Z,17.38
2022-10-14T09:33:00.901Z,12.32
2022-10-14T09:35:37.628Z,14.07
2022-10-14T09:38:04.819Z,15.18
2022-10-14T09:40:33.624Z,15.10
2022-10-14T09:43:09.215Z,16.63
2022-10-14T09:46:00.948Z,16.65
2022-10-14T09:48:48.051Z,17.33
2022-10-14T09:51:19.688Z,18.50
2022-10-14T09:53:55.068Z,16.10
2022-10-14T09:56:41.678Z,32.40
2022-10-14T09:59:19.497Z,19.20
2022-10-14T10:01:55.349Z,17.77
2022-10-14T10:04:31.201Z,15.15
2022-10-14T10:07:00.147Z,23.37
2022-10-14T10:09:27.374Z,17.08
2022-10-14T10:11:55.247Z,16.95
2022-10-14T10:14:30.116Z,23.23
2022-10-14T10:17:10.082Z,16.38
2022-10-14T10:19:40.329Z,13.77
2022-10-14T10:25:12.790Z,13.15
2022-10-14T10:27:49.511Z,12.43
2022-10-14T10:30:20.333Z,15.20
2022-10-14T10:32:54.842Z,15.73
2022-10-14T10:36:06.625Z,14.25
2022-10-14T10:38:45.422Z,11.75
2022-10-14T10:41:22.218Z,12.57
2022-10-14T10:44:19.738Z,12.10
2022-10-14T10:47:02.447Z,11.10
2022-10-14T10:50:03.545Z,13.52
2022-10-14T10:52:48.415Z,10.63
2022-10-14T10:55:16.452Z,10.13
2022-10-14T10:57:49.584Z,8.00
2022-10-14T11:00:22.715Z,10.30
2022-10-14T11:02:55.646Z,8.50
2022-10-14T11:05:37.735Z,10.23
2022-10-14T11:08:57.679Z,13.35
2022-10-14T11:11:46.408Z,13.50
2022-10-14T11:14:50.480Z,11.13
2022-10-14T11:17:44.479Z,17.05
2022-10-14T11:20:37.247Z,13.38
2022-10-14T11:23:37.459Z,10.52
2022-10-14T11:26:41.494Z,11.60
2022-10-14T11:29:23.307Z,9.70
2022-10-14T11:32:03.984Z,12.75
2022-10-14T11:34:43.838Z,11.07
2022-10-14T11:37:49.816Z,12.90
2022-10-14T11:40:28.970Z,10.35
2022-10-14T11:43:23.001Z,13.40
2022-10-14T11:45:57.417Z,14.13
2022-10-14T11:48:26.848Z,11.20
2022-10-14T11:51:02.634Z,9.43
2022-10-14T11:53:45.952Z,12.18
2022-10-14T11:56:45.874Z,9.83
2022-10-14T11:59:26.667Z,10.32
2022-10-14T12:02:00.386Z,13.98
2022-10-14T12:04:37.656Z,14.68
2022-10-14T12:07:11.380Z,15.15
2022-10-14T12:09:44.509Z,11.47
2022-10-14T12:12:18.869Z,17.73
2022-10-14T12:14:56.470Z,14.60
2022-10-14T12:17:58.608Z,16.27
2022-10-14T12:20:40.545Z,14.32
2022-10-14T12:23:11.409Z,9.40
2022-10-14T12:25:51.453Z,13.90
2022-10-14T12:28:20.118Z,10.65
2022-10-14T12:30:47.805Z,11.05
2022-10-14T12:33:22.386Z,15.38
2022-10-14T12:35:52.785Z,11.73
2022-10-14T12:38:21.298Z,9.55
2022-10-14T12:40:49.228Z,10.13
2022-10-14T12:43:15.987Z,9.25
2022-10-14T12:46:13.265Z,9.13
2022-10-14T12:48:50.556Z,10.07
2022-10-14T12:51:23.096Z,8.40
2022-10-14T12:54:07.415Z,10.60
2022-10-14T12:56:39.067Z,11.05
2022-10-14T12:59:09.400Z,8.55
2022-10-14T13:01:37.838Z,9.00
2022-10-14T13:04:19.976Z,8.02
2022-10-14T13:07:39.010Z,10.98
2022-10-14T13:10:44.981Z,9.35
2022-10-14T13:13:41.977Z,9.98
2022-10-14T13:16:30.053Z,13.33
2022-10-14T13:18:58.354Z,8.65
2022-10-14T13:21:31.157Z,8.50
2022-10-14T13:24:17.221Z,12.23
2022-10-14T13:26:53.188Z,12.63
2022-10-14T13:29:19.745Z,11.90
2022-10-14T13:32:04.659Z,9.93
2022-10-14T13:34:43.544Z,9.75
2022-10-14T13:37:25.586Z,10.18
2022-10-14T13:39:53.456Z,15.02
2022-10-14T13:42:26.541Z,14.97
2022-10-14T13:44:56.779Z,11.02
2022-10-14T13:47:24.051Z,11.05
2022-10-14T13:49:51.401Z,17.60
2022-10-14T13:52:25.628Z,17.00
2022-10-14T13:55:18.584Z,17.50
2022-10-14T13:58:19.570Z,14.98
2022-10-14T14:01:02.198Z,16.02
2022-10-14T14:03:42.779Z,19.02
2022-10-14T14:06:17.215Z,16.73
2022-10-14T14:08:53.194Z,13.30
2022-10-14T14:11:22.927Z,12.30
2022-10-14T14:14:00.263Z,12.55
2022-10-14T14:16:39.207Z,14.88
2022-10-14T14:19:09.491Z,14.50
2022-10-14T14:21:37.263Z,14.83
2022-10-14T14:24:15.264Z,12.68
2022-10-14T14:26:42.177Z,11.40
2022-10-14T14:29:17.572Z,11.45
2022-10-14T14:32:05.565Z,11.57
2022-10-14T14:34:35.782Z,11.87
2022-10-14T14:37:32.064Z,12.68
2022-10-14T14:40:00.096Z,16.13
2022-10-14T14:42:30.671Z,14.00
2022-10-14T14:45:02.377Z,12.68
2022-10-14T14:47:29.863Z,11.80
2022-10-14T14:50:18.309Z,13.27
2022-10-14T14:52:46.735Z,14.90
2022-10-14T14:55:36.267Z,14.07
2022-10-14T14:58:05.593Z,14.32
2022-10-14T15:00:32.792Z,10.30
2022-10-14T15:03:01.755Z,12.32
2022-10-14T15:05:29.787Z,12.73
2022-10-14T15:07:56.857Z,13.95
2022-10-14T15:10:29.619Z,12.13
2022-10-14T15:12:59.609Z,13.47
2022-10-14T15:15:31.130Z,13.80
2022-10-14T15:18:13.604Z,17.23
2022-10-14T15:20:42.131Z,15.32
2022-10-14T15:23:38.307Z,14.60
2022-10-14T15:26:25.771Z,11.10
2022-10-14T15:29:07.804Z,13.40
2022-10-14T15:31:35.690Z,7.65
2022-10-14T15:34:03.527Z,7.30
2022-10-14T15:36:34.458Z,6.32
2022-10-14T15:39:02.438Z,9.03
2022-10-14T15:41:29.225Z,9.88
2022-10-14T15:43:56.095Z,7.45
2022-10-14T15:46:41.803Z,6.05
2022-10-14T15:49:18.030Z,7.47
2022-10-14T15:51:44.709Z,9.07
2022-10-14T15:54:15.564Z,8.75
2022-10-14T15:56:42.580Z,10.15
2022-10-14T15:59:10.072Z,9.95
2022-10-14T16:01:39.742Z,15.25
2022-10-14T16:04:14.352Z,10.77
2022-10-14T16:06:41.971Z,11.60
2022-10-14T16:09:08.552Z,9.38
2022-10-14T16:11:35.522Z,8.95
2022-10-14T16:14:03.571Z,7.85
2022-10-14T16:16:35.064Z,9.20
2022-10-14T16:19:02.398Z,6.07
2022-10-14T16:21:29.600Z,6.35
2022-10-14T16:23:56.448Z,6.97
2022-10-14T16:26:23.130Z,6.35
2022-10-14T16:28:49.987Z,6.73
2022-10-14T16:31:17.184Z,11.98
2022-10-14T16:33:45.774Z,13.05
2022-10-14T16:36:15.003Z,8.60
2022-10-14T16:38:42.137Z,10.32
2022-10-14T16:41:10.515Z,8.03
2022-10-14T16:43:37.873Z,16.58
2022-10-14T16:46:05.822Z,8.88
2022-10-14T16:48:35.631Z,7.72
2022-10-14T16:51:02.847Z,7.95
2022-10-14T16:53:43.563Z,7.93
2022-10-14T16:56:35.119Z,10.73
2022-10-14T16:59:02.459Z,11.73
2022-10-14T17:01:30.330Z,13.13
2022-10-14T17:03:57.784Z,9.75
2022-10-14T17:06:25.651Z,14.27
2022-10-14T17:08:52.960Z,17.63
2022-10-14T17:11:20.233Z,13.10
2022-10-14T17:13:46.960Z,11.63
2022-10-14T17:16:13.814Z,12.57
2022-10-14T17:18:42.674Z,11.80
2022-10-14T17:21:14.995Z,10.02
2022-10-14T17:23:43.713Z,10.68
2022-10-14T17:26:15.135Z,11.18
2022-10-14T17:28:42.485Z,8.45
2022-10-14T17:31:13.334Z,9.50
2022-10-14T17:33:40.931Z,7.50
2022-10-14T17:36:13.880Z,10.02
2022-10-14T17:38:41.175Z,9.43
2022-10-14T17:41:09.500Z,10.73
2022-10-14T17:43:38.372Z,10.07
2022-10-14T17:46:14.236Z,10.70
2022-10-14T17:48:42.621Z,11.45
2022-10-14T17:51:11.233Z,15.90
2022-10-14T17:53:39.061Z,13.45
2022-10-14T17:56:07.837Z,7.07
2022-10-14T17:58:34.774Z,9.05
2022-10-14T18:01:13.611Z,14.88
2022-10-14T18:03:42.586Z,10.30
2022-10-14T18:06:10.560Z,9.43
2022-10-14T18:08:37.250Z,9.50
2022-10-14T18:11:10.044Z,10.25
2022-10-14T18:13:37.950Z,7.82
2022-10-14T18:16:07.119Z,8.55
2022-10-14T18:18:34.897Z,9.45
2022-10-14T18:21:02.994Z,9.33
2022-10-14T18:23:31.201Z,8.75
2022-10-14T18:26:13.540Z,7.03
2022-10-14T18:28:43.229Z,6.03
2022-10-14T18:31:19.506Z,5.57
2022-10-14T18:33:47.449Z,6.83
2022-10-14T18:36:17.084Z,7.30
2022-10-14T18:38:50.509Z,8.20
2022-10-14T18:41:17.446Z,9.75
2022-10-14T18:43:44.084Z,7.70
2022-10-14T18:46:17.787Z,8.93
2022-10-14T18:48:47.089Z,8.25
2022-10-14T18:51:15.613Z,8.75
2022-10-14T18:53:45.410Z,7.90
2022-10-14T18:56:24.355Z,7.28
2022-10-14T18:58:57.463Z,6.50
2022-10-14T19:01:26.253Z,7.55
2022-10-14T19:03:53.880Z,7.82
2022-10-14T19:06:21.661Z,10.18
2022-10-14T19:08:49.550Z,8.75
2022-10-14T19:11:24.514Z,9.27
2022-10-14T19:13:53.296Z,8.63
2022-10-14T19:16:24.469Z,11.15
2022-10-14T19:18:54.359Z,11.43
2022-10-14T19:21:22.686Z,8.60
2022-10-14T19:23:50.045Z,12.20
2022-10-14T19:26:21.703Z,12.15
2022-10-14T19:28:52.248Z,14.02
2022-10-14T19:31:24.965Z,12.20
2022-10-14T19:33:54.051Z,9.07
2022-10-14T19:36:23.034Z,8.57
2022-10-14T19:38:57.967Z,9.25
2022-10-14T19:41:28.273Z,15.35
2022-10-14T19:43:57.245Z,18.40
2022-10-14T19:46:27.244Z,25.85
2022-10-14T19:48:59.182Z,20.17
2022-10-14T19:51:27.150Z,24.65
2022-10-14T19:53:55.207Z,13.18
2022-10-14T19:56:22.868Z,8.52
2022-10-14T19:58:51.903Z,11.25
2022-10-14T20:01:20.722Z,5.17
2022-10-14T20:03:47.745Z,5.43
2022-10-14T20:06:14.518Z,7.85
2022-10-14T20:08:42.831Z,9.32
2022-10-14T20:11:12.716Z,13.35
2022-10-14T20:13:39.893Z,18.83
2022-10-14T20:16:08.892Z,10.05
2022-10-14T20:18:36.035Z,12.65
2022-10-14T20:21:05.802Z,9.32
2022-10-14T20:23:34.285Z,10.75
2022-10-14T20:26:11.082Z,7.00
2022-10-14T20:28:39.271Z,7.03
2022-10-14T20:31:07.475Z,6.28
2022-10-14T20:33:34.245Z,6.05
2022-10-14T20:36:03.137Z,7.05
2022-10-14T20:38:30.128Z,5.23
2022-10-14T20:41:04.108Z,5.68
2022-10-14T20:43:31.010Z,6.32
2022-10-14T20:45:57.682Z,11.25
2022-10-14T20:48:25.265Z,7.35
2022-10-14T20:50:52.199Z,7.77
2022-10-14T20:53:18.855Z,7.30
2022-10-14T20:55:45.601Z,5.65
2022-10-14T20:58:12.618Z,5.60
2022-10-14T21:00:39.402Z,5.22
2022-10-14T21:03:06.161Z,6.60
2022-10-14T21:05:36.194Z,5.55
2022-10-14T21:08:03.656Z,6.13
2022-10-14T21:10:30.369Z,4.63
2022-10-14T21:12:57.208Z,5.85
2022-10-14T21:15:26.818Z,6.53
2022-10-14T21:17:53.629Z,4.53
2022-10-14T21:20:20.830Z,5.15
2022-10-14T21:22:47.629Z,4.90
2022-10-14T21:25:14.426Z,5.93
2022-10-14T21:27:41.221Z,6.80
2022-10-14T21:30:08.934Z,5.55
2022-10-14T21:32:35.621Z,6.85
2022-10-14T21:35:02.649Z,7.63
2022-10-14T21:37:29.841Z,9.05
2022-10-14T21:39:56.532Z,8.10
2022-10-14T21:42:23.570Z,5.28
2022-10-14T21:44:50.380Z,7.13
2022-10-14T21:47:17.150Z,6.00
2022-10-14T21:49:44.291Z,6.82
2022-10-14T21:52:10.941Z,6.53
2022-10-14T21:54:37.620Z,6.90
2022-10-14T21:57:04.470Z,7.82
2022-10-14T21:59:31.134Z,6.05
2022-10-14T22:01:59.058Z,6.43
2022-10-14T22:04:26.942Z,6.63
2022-10-14T22:06:53.712Z,5.78
2022-10-14T22:09:20.369Z,6.25
2022-10-14T22:11:47.522Z,5.78
2022-10-14T22:14:19.001Z,8.30
2022-10-14T22:16:46.875Z,5.63
2022-10-14T22:19:14.441Z,5.65
2022-10-14T22:21:43.364Z,6.07
2022-10-14T22:24:10.754Z,5.07
2022-10-14T22:26:38.358Z,4.75
2022-10-14T22:29:16.325Z,6.00
2022-10-14T22:31:44.078Z,5.63
2022-10-14T22:34:13.131Z,5.43
2022-10-14T22:36:40.622Z,4.80
2022-10-14T22:39:11.879Z,5.28
2022-10-14T22:41:38.934Z,6.67
2022-10-14T22:44:06.147Z,8.50
2022-10-14T22:46:35.219Z,10.75
2022-10-14T22:49:02.094Z,5.85
2022-10-14T22:51:35.098Z,6.85
2022-10-14T22:54:02.441Z,5.43
2022-10-14T22:56:30.704Z,7.22
2022-10-14T22:59:03.647Z,5.88
2022-10-14T23:01:31.095Z,5.22
2022-10-14T23:03:59.615Z,5.05
2022-10-14T23:06:27.482Z,5.53
2022-10-14T23:08:54.741Z,6.47
2022-10-14T23:11:23.253Z,6.05
2022-10-14T23:13:50.449Z,5.10
2022-10-14T23:16:20.688Z,5.75
2022-10-14T23:18:48.430Z,5.00
2022-10-14T23:21:16.372Z,12.15
2022-10-14T23:23:44.482Z,6.20
2022-10-14T23:26:13.980Z,4.90
2022-10-14T23:28:40.922Z,4.28
2022-10-14T23:31:13.932Z,6.80
2022-10-14T23:33:40.644Z,12.65
2022-10-14T23:36:09.753Z,7.85
2022-10-14T23:38:36.835Z,24.00
2022-10-14T23:41:04.816Z,31.88
2022-10-14T23:43:31.821Z,26.90
2022-10-14T23:45:59.070Z,49.60
2022-10-14T23:48:26.235Z,73.07
2022-10-14T23:50:53.687Z,42.15
2022-10-14T23:53:20.807Z,29.60
2022-10-14T23:55:47.478Z,75.40
2022-10-14T23:58:14.180Z,23.13
